createdAt,value
2022-08-05T00:01:36.102Z,11.70
2022-08-05T00:04:08.378Z,11.80
2022-08-05T00:06:36.732Z,10.80
2022-08-05T00:09:12.861Z,11.90
2022-08-05T00:11:48.781Z,11.90
2022-08-05T00:14:27.781Z,12.00
2022-08-05T00:16:57.917Z,12.00
2022-08-05T00:19:32.900Z,11.20
2022-08-05T00:22:03.263Z,12.50
2022-08-05T00:24:32.322Z,9.40
2022-08-05T00:27:04.552Z,10.10
2022-08-05T00:29:38.482Z,9.60
2022-08-05T00:32:12.233Z,10.80
2022-08-05T00:35:04.789Z,10.40
2022-08-05T00:37:51.078Z,10.30
2022-08-05T00:40:27.071Z,11.20
2022-08-05T00:43:00.560Z,12.60
2022-08-05T00:45:38.294Z,13.70
2022-08-05T00:48:09.420Z,10.70
2022-08-05T00:50:41.340Z,11.30
2022-08-05T00:54:01.026Z,11.40
2022-08-05T00:56:01.281Z,13.90
2022-08-05T00:58:29.132Z,10.20
2022-08-05T01:00:57.308Z,11.50
2022-08-05T01:03:33.252Z,12.20
2022-08-05T01:06:02.615Z,15.00
2022-08-05T01:08:43.418Z,15.00
2022-08-05T01:11:36.712Z,14.70
2022-08-05T01:14:50.411Z,14.30
2022-08-05T01:17:40.343Z,15.30
2022-08-05T01:20:34.228Z,14.00
2022-08-05T01:23:24.324Z,13.60
2022-08-05T01:26:38.337Z,14.70
2022-08-05T01:29:17.351Z,13.10
2022-08-05T01:31:59.509Z,12.20
2022-08-05T01:34:36.643Z,13.20
2022-08-05T01:37:18.002Z,15.40
2022-08-05T01:39:59.171Z,12.80
2022-08-05T01:42:34.077Z,12.60
2022-08-05T01:45:03.536Z,11.40
2022-08-05T01:47:39.674Z,13.10
2022-08-05T01:50:28.871Z,13.20
2022-08-05T01:53:04.869Z,13.90
2022-08-05T01:55:39.019Z,13.40
2022-08-05T01:58:15.597Z,12.10
2022-08-05T02:00:50.518Z,13.50
2022-08-05T02:03:34.287Z,13.50
2022-08-05T02:06:37.290Z,11.70
2022-08-05T02:08:57.847Z,13.70
2022-08-05T02:11:47.771Z,13.20
2022-08-05T02:14:32.462Z,12.40
2022-08-05T02:18:30.646Z,13.00
2022-08-05T02:21:15.048Z,13.40
2022-08-05T02:23:49.116Z,14.60
2022-08-05T02:26:26.469Z,13.30
2022-08-05T02:28:58.161Z,13.00
2022-08-05T02:31:34.973Z,13.60
2022-08-05T02:34:11.941Z,13.20
2022-08-05T02:36:49.289Z,11.80
2022-08-05T02:39:21.501Z,13.00
2022-08-05T02:41:58.262Z,14.70
2022-08-05T02:44:32.556Z,15.00
2022-08-05T02:47:02.696Z,12.70
2022-08-05T02:49:40.638Z,11.80
2022-08-05T02:52:29.488Z,13.40
2022-08-05T02:55:01.801Z,11.40
2022-08-05T02:58:10.842Z,11.20
2022-08-05T03:00:23.229Z,12.30
2022-08-05T03:02:55.575Z,12.00
2022-08-05T03:06:55.446Z,12.30
2022-08-05T03:08:12.453Z,13.90
2022-08-05T03:11:53.108Z,13.00
2022-08-05T03:13:51.412Z,10.30
2022-08-05T03:16:22.595Z,13.00
2022-08-05T03:18:51.433Z,12.30
2022-08-05T03:21:19.987Z,13.40
2022-08-05T03:23:50.170Z,14.80
2022-08-05T03:26:31.568Z,16.70
2022-08-05T03:29:00.572Z,12.80
2022-08-05T03:31:57.006Z,14.20
2022-08-05T03:34:19.460Z,14.50
2022-08-05T03:36:52.412Z,16.80
2022-08-05T03:39:27.286Z,14.50
2022-08-05T03:41:56.878Z,16.00
2022-08-05T03:44:25.590Z,13.40
2022-08-05T03:46:57.158Z,13.90
2022-08-05T03:49:31.153Z,11.90
2022-08-05T03:52:37.149Z,15.20
2022-08-05T03:56:06.049Z,12.30
2022-08-05T03:58:16.692Z,13.10
2022-08-05T04:00:51.526Z,14.00
2022-08-05T04:03:28.611Z,13.90
2022-08-05T04:05:59.254Z,11.90
2022-08-05T04:08:36.532Z,15.70
2022-08-05T04:11:08.725Z,16.70
2022-08-05T04:13:49.727Z,12.70
2022-08-05T04:16:24.948Z,11.80
2022-08-05T04:18:54.892Z,12.10
2022-08-05T04:22:10.079Z,12.30
2022-08-05T04:24:19.215Z,14.60
2022-08-05T04:26:51.036Z,13.20
2022-08-05T04:29:18.954Z,12.00
2022-08-05T04:31:50.864Z,12.80
2022-08-05T04:34:32.420Z,12.90
2022-08-05T04:37:03.370Z,13.30
2022-08-05T04:39:35.503Z,15.50
2022-08-05T04:42:04.226Z,13.20
2022-08-05T04:44:32.171Z,14.30
2022-08-05T04:47:09.944Z,14.00
2022-08-05T04:50:01.727Z,11.90
2022-08-05T04:52:29.172Z,13.10
2022-08-05T04:55:09.594Z,9.90
2022-08-05T04:57:48.019Z,10.60
2022-08-05T05:00:23.455Z,10.20
2022-08-05T05:02:52.110Z,11.50
2022-08-05T05:05:26.185Z,9.90
2022-08-05T05:08:05.482Z,7.80
2022-08-05T05:10:55.996Z,13.20
2022-08-05T05:13:24.462Z,10.10
2022-08-05T05:15:57.560Z,10.70
2022-08-05T05:18:33.356Z,10.60
2022-08-05T05:21:03.920Z,9.80
2022-08-05T05:23:39.198Z,11.80
2022-08-05T05:26:28.816Z,10.30
2022-08-05T05:29:00.925Z,8.40
2022-08-05T05:34:01.920Z,9.50
2022-08-05T05:36:32.142Z,9.30
2022-08-05T05:39:00.355Z,9.20
2022-08-05T05:41:40.832Z,11.00
2022-08-05T05:44:35.474Z,11.70
2022-08-05T05:47:04.316Z,11.40
2022-08-05T05:49:33.312Z,9.30
2022-08-05T05:52:07.336Z,8.60
2022-08-05T05:54:50.991Z,8.70
2022-08-05T05:57:20.176Z,9.70
2022-08-05T05:59:48.973Z,10.30
2022-08-05T06:02:17.333Z,10.10
2022-08-05T06:05:03.482Z,8.50
2022-08-05T06:07:42.024Z,12.60
2022-08-05T06:10:11.125Z,9.90
2022-08-05T06:12:42.637Z,8.30
2022-08-05T06:15:24.181Z,9.80
2022-08-05T06:17:54.767Z,9.30
2022-08-05T06:20:23.314Z,10.50
2022-08-05T06:22:51.164Z,9.00
2022-08-05T06:25:25.064Z,8.40
2022-08-05T06:28:12.511Z,9.00
2022-08-05T06:30:49.521Z,9.20
2022-08-05T06:33:19.408Z,9.80
2022-08-05T06:36:07.576Z,7.40
2022-08-05T06:38:38.360Z,15.50
2022-08-05T06:41:15.009Z,8.60
2022-08-05T06:43:59.755Z,9.10
2022-08-05T06:46:30.147Z,11.90
2022-08-05T06:49:01.297Z,9.10
2022-08-05T06:51:31.472Z,7.40
2022-08-05T06:54:04.909Z,9.00
2022-08-05T06:56:34.519Z,8.20
2022-08-05T06:59:09.540Z,13.10
2022-08-05T07:01:40.591Z,7.10
2022-08-05T07:04:11.217Z,9.50
2022-08-05T07:06:45.285Z,7.40
2022-08-05T07:09:13.979Z,7.50
2022-08-05T07:11:49.382Z,7.50
2022-08-05T07:14:38.311Z,10.10
2022-08-05T07:18:00.692Z,8.00
2022-08-05T07:22:45.715Z,11.80
2022-08-05T07:25:55.429Z,9.40
2022-08-05T07:28:09.687Z,8.10
2022-08-05T07:30:43.206Z,8.00
2022-08-05T07:33:16.036Z,9.10
2022-08-05T07:36:04.135Z,8.30
2022-08-05T07:38:43.758Z,8.20
2022-08-05T07:42:12.976Z,8.10
2022-08-05T07:44:18.775Z,8.20
2022-08-05T07:46:49.405Z,7.10
2022-08-05T07:49:19.696Z,8.50
2022-08-05T07:51:54.514Z,6.70
2022-08-05T07:54:31.355Z,8.00
2022-08-05T07:57:17.720Z,7.80
2022-08-05T07:59:52.266Z,7.90
2022-08-05T08:02:30.907Z,6.80
2022-08-05T08:05:11.672Z,6.00
2022-08-05T08:08:00.024Z,6.30
2022-08-05T08:10:29.328Z,9.30
2022-08-05T08:12:59.048Z,7.20
2022-08-05T08:16:34.352Z,6.90
2022-08-05T08:18:20.912Z,5.80
2022-08-05T08:21:03.019Z,7.00
2022-08-05T08:24:02.489Z,8.60
2022-08-05T08:26:29.829Z,6.50
2022-08-05T08:29:09.755Z,6.40
2022-08-05T08:31:52.570Z,6.80
2022-08-05T08:34:30.589Z,9.00
2022-08-05T08:37:04.893Z,7.90
2022-08-05T08:39:37.418Z,7.50
2022-08-05T08:42:34.085Z,9.90
2022-08-05T08:45:23.173Z,6.30
2022-08-05T08:48:07.113Z,6.20
2022-08-05T08:51:22.115Z,6.60
2022-08-05T08:53:44.385Z,8.70
2022-08-05T08:56:14.953Z,5.90
2022-08-05T08:58:47.979Z,6.10
2022-08-05T09:01:19.664Z,5.20
2022-08-05T09:03:58.724Z,6.10
2022-08-05T09:06:30.964Z,6.30
2022-08-05T09:09:02.237Z,8.30
2022-08-05T09:11:53.770Z,10.30
2022-08-05T09:14:58.096Z,12.20
2022-08-05T09:17:40.222Z,7.20
2022-08-05T09:20:04.819Z,10.20
2022-08-05T09:23:19.583Z,5.90
2022-08-05T09:26:03.156Z,7.50
2022-08-05T09:28:34.859Z,4.90
2022-08-05T09:31:43.806Z,6.60
2022-08-05T09:34:10.358Z,9.30
2022-08-05T09:36:55.961Z,5.70
2022-08-05T09:39:41.450Z,5.50
2022-08-05T09:42:28.271Z,6.90
2022-08-05T09:45:17.907Z,10.70
2022-08-05T09:47:55.398Z,6.40
2022-08-05T09:50:38.849Z,8.40
2022-08-05T09:53:22.696Z,8.80
2022-08-05T09:56:05.033Z,5.60
2022-08-05T09:58:42.077Z,6.60
2022-08-05T10:01:14.947Z,7.60
2022-08-05T10:04:19.649Z,6.40
2022-08-05T10:06:59.852Z,6.60
2022-08-05T10:09:44.974Z,6.10
2022-08-05T10:12:18.364Z,6.70
2022-08-05T10:15:20.943Z,8.10
2022-08-05T10:18:07.441Z,7.70
2022-08-05T10:20:56.992Z,6.80
2022-08-05T10:23:56.439Z,8.20
2022-08-05T10:26:24.203Z,8.30
2022-08-05T10:29:00.238Z,7.20
2022-08-05T10:32:55.165Z,6.40
2022-08-05T10:34:16.790Z,5.70
2022-08-05T10:36:48.122Z,5.10
2022-08-05T10:39:59.525Z,5.80
2022-08-05T10:42:33.761Z,6.90
2022-08-05T10:45:21.510Z,5.60
2022-08-05T10:48:29.779Z,6.20
2022-08-05T10:51:00.750Z,7.00
2022-08-05T10:53:55.738Z,7.70
2022-08-05T10:56:27.343Z,6.30
2022-08-05T10:58:58.410Z,7.40
2022-08-05T11:01:55.274Z,6.80
2022-08-05T11:04:48.285Z,6.50
2022-08-05T11:07:18.953Z,5.80
2022-08-05T11:10:29.221Z,5.70
2022-08-05T11:13:01.344Z,7.20
2022-08-05T11:15:59.173Z,6.10
2022-08-05T11:18:39.058Z,6.90
2022-08-05T11:21:40.892Z,6.10
2022-08-05T11:24:30.176Z,8.40
2022-08-05T11:27:37.060Z,4.70
2022-08-05T11:30:22.795Z,8.00
2022-08-05T11:33:44.066Z,9.20
2022-08-05T11:36:34.541Z,6.20
2022-08-05T11:39:09.718Z,5.00
2022-08-05T11:42:01.183Z,5.90
2022-08-05T11:44:53.075Z,7.40
2022-08-05T11:47:48.452Z,6.70
2022-08-05T11:50:14.274Z,6.30
2022-08-05T11:52:46.212Z,6.30
2022-08-05T11:55:21.224Z,6.30
2022-08-05T11:58:11.053Z,6.70
2022-08-05T12:00:41.530Z,6.60
2022-08-05T12:03:32.054Z,5.10
2022-08-05T12:06:06.101Z,7.90
2022-08-05T12:08:49.871Z,5.80
2022-08-05T12:11:28.230Z,5.30
2022-08-05T12:14:10.400Z,6.30
2022-08-05T12:16:45.284Z,6.40
2022-08-05T12:20:27.120Z,6.10
2022-08-05T12:22:09.550Z,6.20
2022-08-05T12:24:49.556Z,5.70
2022-08-05T12:27:25.432Z,7.00
2022-08-05T12:30:15.592Z,7.20
2022-08-05T12:32:54.053Z,5.20
2022-08-05T12:35:28.372Z,5.50
2022-08-05T12:38:08.548Z,6.60
2022-08-05T12:40:38.985Z,6.50
2022-08-05T12:43:12.472Z,6.80
2022-08-05T12:45:56.864Z,6.50
2022-08-05T12:48:32.249Z,8.50
2022-08-05T12:51:21.593Z,7.00
2022-08-05T12:53:55.644Z,6.70
2022-08-05T12:56:35.440Z,8.10
2022-08-05T12:59:27.621Z,7.90
2022-08-05T13:02:09.935Z,6.00
2022-08-05T13:04:54.798Z,7.30
2022-08-05T13:07:57.744Z,6.20
2022-08-05T13:10:19.556Z,7.70
2022-08-05T13:12:57.299Z,6.10
2022-08-05T13:15:41.749Z,7.60
2022-08-05T13:18:20.546Z,7.90
2022-08-05T13:20:50.138Z,7.30
2022-08-05T13:23:22.482Z,7.60
2022-08-05T13:25:59.488Z,14.70
2022-08-05T13:28:32.251Z,6.40
2022-08-05T13:31:10.879Z,8.00
2022-08-05T13:34:21.508Z,6.90
2022-08-05T13:36:30.871Z,8.10
2022-08-05T13:38:58.890Z,7.00
2022-08-05T13:41:36.100Z,7.30
2022-08-05T13:44:06.595Z,8.60
2022-08-05T13:47:01.810Z,6.70
2022-08-05T13:49:35.306Z,6.40
2022-08-05T13:52:15.041Z,10.30
2022-08-05T13:54:43.233Z,7.20
2022-08-05T13:57:25.254Z,7.30
2022-08-05T13:59:59.195Z,6.60
2022-08-05T14:02:29.851Z,6.80
2022-08-05T14:05:11.598Z,9.00
2022-08-05T14:07:59.657Z,5.70
2022-08-05T14:10:32.325Z,5.10
2022-08-05T14:13:03.104Z,6.00
2022-08-05T14:16:04.490Z,8.30
2022-08-05T14:18:23.523Z,7.40
2022-08-05T14:20:56.456Z,7.90
2022-08-05T14:23:36.669Z,6.30
2022-08-05T14:26:38.328Z,5.30
2022-08-05T14:28:59.213Z,11.70
2022-08-05T14:32:03.227Z,5.10
2022-08-05T14:34:18.998Z,10.40
2022-08-05T14:36:53.530Z,7.30
2022-08-05T14:39:24.436Z,10.80
2022-08-05T14:42:19.654Z,6.90
2022-08-05T14:44:46.020Z,7.40
2022-08-05T14:47:14.417Z,6.30
2022-08-05T14:49:59.636Z,7.60
2022-08-05T14:52:51.515Z,9.20
2022-08-05T14:55:38.620Z,7.20
2022-08-05T14:58:11.622Z,7.20
2022-08-05T15:00:57.921Z,8.40
2022-08-05T15:03:33.562Z,7.00
2022-08-05T15:06:14.935Z,8.40
2022-08-05T15:09:01.295Z,6.90
2022-08-05T15:11:51.885Z,6.40
2022-08-05T15:14:35.862Z,8.40
2022-08-05T15:17:44.630Z,7.80
2022-08-05T15:19:58.095Z,6.10
2022-08-05T15:22:27.079Z,8.00
2022-08-05T15:24:59.375Z,7.20
2022-08-05T15:27:35.896Z,7.30
2022-08-05T15:30:04.958Z,6.60
2022-08-05T15:32:33.358Z,7.30
2022-08-05T15:35:04.195Z,6.80
2022-08-05T15:38:33.186Z,6.90
2022-08-05T15:40:58.614Z,6.70
2022-08-05T15:43:20.536Z,6.90
2022-08-05T15:46:00.347Z,9.60
2022-08-05T15:48:30.186Z,6.90
2022-08-05T15:51:01.519Z,5.80
2022-08-05T15:53:38.364Z,7.70
2022-08-05T15:56:20.441Z,6.50
2022-08-05T15:58:49.203Z,8.60
2022-08-05T16:01:20.082Z,6.90
2022-08-05T16:03:50.728Z,7.30
2022-08-05T16:06:20.924Z,9.60
2022-08-05T16:08:55.266Z,6.60
2022-08-05T16:11:42.430Z,9.90
2022-08-05T16:14:17.472Z,7.10
2022-08-05T16:16:47.405Z,6.00
2022-08-05T16:22:58.459Z,7.30
2022-08-05T16:25:32.148Z,5.80
2022-08-05T16:28:09.551Z,6.30
2022-08-05T16:30:42.801Z,6.20
2022-08-05T16:33:13.351Z,7.90
2022-08-05T16:35:45.242Z,9.70
2022-08-05T16:38:27.919Z,8.40
2022-08-05T16:41:01.506Z,8.70
2022-08-05T16:43:34.782Z,8.50
2022-08-05T16:46:23.567Z,9.80
2022-08-05T16:48:55.653Z,6.80
2022-08-05T16:51:24.933Z,6.70
2022-08-05T16:54:03.203Z,9.30
2022-08-05T16:56:41.723Z,6.70
2022-08-05T16:59:14.698Z,8.50
2022-08-05T17:01:53.745Z,8.30
2022-08-05T17:04:28.376Z,11.10
2022-08-05T17:07:11.418Z,6.70
2022-08-05T17:09:57.306Z,6.90
2022-08-05T17:12:50.463Z,6.80
2022-08-05T17:15:19.658Z,6.80
2022-08-05T17:17:54.838Z,8.00
2022-08-05T17:20:25.078Z,9.60
2022-08-05T17:22:55.773Z,9.80
2022-08-05T17:25:33.859Z,9.20
2022-08-05T17:28:15.468Z,11.60
2022-08-05T17:30:52.190Z,9.90
2022-08-05T17:33:21.613Z,9.70
2022-08-05T17:36:07.465Z,11.50
2022-08-05T17:38:47.336Z,11.30
2022-08-05T17:42:17.651Z,12.60
2022-08-05T17:44:26.620Z,11.70
2022-08-05T17:47:05.631Z,13.80
2022-08-05T17:50:00.157Z,12.50
2022-08-05T17:52:26.160Z,24.90
2022-08-05T17:54:54.642Z,18.70
2022-08-05T17:57:25.907Z,14.70
2022-08-05T18:00:09.114Z,11.30
2022-08-05T18:02:47.082Z,11.00
2022-08-05T18:05:16.969Z,14.80
2022-08-05T18:07:46.534Z,9.50
2022-08-05T18:10:21.356Z,11.00
2022-08-05T18:12:50.353Z,9.50
2022-08-05T18:15:18.845Z,7.80
2022-08-05T18:17:58.714Z,8.00
2022-08-05T18:20:32.526Z,9.40
2022-08-05T18:23:11.527Z,9.20
2022-08-05T18:25:45.068Z,7.90
2022-08-05T18:28:16.186Z,7.50
2022-08-05T18:30:52.726Z,7.80
2022-08-05T18:33:22.741Z,8.80
2022-08-05T18:36:03.500Z,7.80
2022-08-05T18:38:36.445Z,7.70
2022-08-05T18:41:57.703Z,7.90
2022-08-05T18:43:57.014Z,8.00
2022-08-05T18:46:34.559Z,9.60
2022-08-05T18:49:23.479Z,8.80
2022-08-05T18:52:17.467Z,9.00
2022-08-05T18:55:06.202Z,8.20
2022-08-05T18:57:50.006Z,9.90
2022-08-05T19:00:27.122Z,11.00
2022-08-05T19:03:03.786Z,7.80
2022-08-05T19:06:12.384Z,9.60
2022-08-05T19:08:30.458Z,8.50
2022-08-05T19:11:02.804Z,8.50
2022-08-05T19:13:36.085Z,8.20
2022-08-05T19:16:24.339Z,9.20
2022-08-05T19:18:56.563Z,10.10
2022-08-05T19:21:34.364Z,8.00
2022-08-05T19:24:09.001Z,8.10
2022-08-05T19:26:43.961Z,7.40
2022-08-05T19:29:26.580Z,8.20
2022-08-05T19:32:11.778Z,8.20
2022-08-05T19:34:54.290Z,8.30
2022-08-05T19:37:29.828Z,5.90
2022-08-05T19:40:10.104Z,8.70
2022-08-05T19:42:39.197Z,7.90
2022-08-05T19:45:08.393Z,7.10
2022-08-05T19:47:42.456Z,7.20
2022-08-05T19:50:12.134Z,6.90
2022-08-05T19:52:41.019Z,6.60
2022-08-05T19:56:15.163Z,6.50
2022-08-05T19:58:04.126Z,7.10
2022-08-05T20:00:45.990Z,6.50
2022-08-05T20:03:14.313Z,7.00
2022-08-05T20:05:49.792Z,6.60
2022-08-05T20:08:19.838Z,7.40
2022-08-05T20:10:49.567Z,7.20
2022-08-05T20:13:30.341Z,9.60
2022-08-05T20:16:07.482Z,8.80
2022-08-05T20:18:36.254Z,7.10
2022-08-05T20:21:07.350Z,8.50
2022-08-05T20:23:50.367Z,9.90
2022-08-05T20:26:25.291Z,9.40
2022-08-05T20:28:57.539Z,8.90
2022-08-05T20:31:43.049Z,8.40
2022-08-05T20:34:17.648Z,7.50
2022-08-05T20:36:45.578Z,8.00
2022-08-05T20:39:16.665Z,7.90
2022-08-05T20:41:47.899Z,8.20
2022-08-05T20:44:30.521Z,8.60
2022-08-05T20:47:04.163Z,9.80
2022-08-05T20:49:37.947Z,7.60
2022-08-05T20:52:10.679Z,7.70
2022-08-05T20:54:43.350Z,8.20
2022-08-05T20:57:43.023Z,8.30
2022-08-05T21:00:40.422Z,9.00
2022-08-05T21:03:07.290Z,8.60
2022-08-05T21:05:53.925Z,9.50
2022-08-05T21:08:41.340Z,8.00
2022-08-05T21:11:12.697Z,8.90
2022-08-05T21:13:56.005Z,9.60
2022-08-05T21:16:29.641Z,11.00
2022-08-05T21:19:01.372Z,10.30
2022-08-05T21:21:44.006Z,9.70
2022-08-05T21:24:19.707Z,9.10
2022-08-05T21:26:53.395Z,7.60
2022-08-05T21:29:31.836Z,9.70
2022-08-05T21:32:02.738Z,9.80
2022-08-05T21:34:31.636Z,8.30
2022-08-05T21:37:00.999Z,8.40
2022-08-05T21:39:29.978Z,10.50
2022-08-05T21:42:01.184Z,9.80
2022-08-05T21:44:32.006Z,9.90
2022-08-05T21:47:00.629Z,11.00
2022-08-05T21:49:59.450Z,10.30
2022-08-05T21:52:27.340Z,10.20
2022-08-05T21:55:06.152Z,10.30
2022-08-05T21:57:37.501Z,9.90
2022-08-05T22:00:12.453Z,9.90
2022-08-05T22:02:41.623Z,12.40
2022-08-05T22:05:12.476Z,10.30
2022-08-05T22:07:58.735Z,10.70
2022-08-05T22:10:28.125Z,12.30
2022-08-05T22:12:59.152Z,11.10
2022-08-05T22:16:00.851Z,11.70
2022-08-05T22:18:26.527Z,12.50
2022-08-05T22:20:55.879Z,10.60
2022-08-05T22:24:01.969Z,11.70
2022-08-05T22:26:51.839Z,10.10
2022-08-05T22:29:26.541Z,10.70
2022-08-05T22:32:02.905Z,9.50
2022-08-05T22:34:33.739Z,10.90
2022-08-05T22:37:03.932Z,10.60
2022-08-05T22:39:34.750Z,9.50
2022-08-05T22:42:12.683Z,11.10
2022-08-05T22:44:53.512Z,10.50
2022-08-05T22:47:29.684Z,9.30
2022-08-05T22:50:20.886Z,10.30
2022-08-05T22:52:51.415Z,10.10
2022-08-05T22:55:23.699Z,8.90
2022-08-05T22:57:53.359Z,9.10
2022-08-05T23:00:23.773Z,8.30
2022-08-05T23:02:53.625Z,7.80
2022-08-05T23:05:23.077Z,8.80
2022-08-05T23:07:51.873Z,8.10
2022-08-05T23:10:24.049Z,9.10
2022-08-05T23:12:55.547Z,9.10
2022-08-05T23:15:29.804Z,7.20
2022-08-05T23:18:06.138Z,6.50
2022-08-05T23:20:39.888Z,7.60
2022-08-05T23:23:11.218Z,7.10
2022-08-05T23:25:52.764Z,7.40
2022-08-05T23:28:26.897Z,7.30
2022-08-05T23:31:02.205Z,7.10
2022-08-05T23:34:06.243Z,7.90
2022-08-05T23:36:39.728Z,6.70
2022-08-05T23:39:17.219Z,6.70
2022-08-05T23:41:54.003Z,9.00
2022-08-05T23:44:25.127Z,6.90
2022-08-05T23:46:56.095Z,8.00
2022-08-05T23:49:35.980Z,10.90
2022-08-05T23:52:25.275Z,4.70
2022-08-05T23:54:55.907Z,6.90
2022-08-05T23:57:28.225Z,4.90
